Pagrindinis puslapis
METAR-TAF:

METAR-TAF

Oro uostai :

Kosraė, Mikronezija

platuma: 05-21N, ilguma: 162-57E, Aukštis: 3 m

Dabartinis oras

Ataskaita buvo paskelbta 10 valandos ir 46 minutes, ne 02:50 UTC
Vėjas 8 kt iš Pietų
Temperatūra 28°C
Drėgmė 89%
Slėgis 1006 hPa
Matomumas: 16.1 km
Su prošvaistėmis ne aukštis 1500 ft, aukštai iškilę kamuoliniai debesys.
Su prošvaistėmis ne aukštis 12000 ft
Apsiniaukę ne aukštis 29000 ft

METAR: PTSA 280250Z 17008KT 10SM BKN015TCU BKN120 OVC290 28/26 A2970 RMK TCU NW

Laikas: 00:36 (13:36 UTC)

Prognozė

Ataskaita buvo paskelbta 13 valandos ir 50 minutes, ne 23:46 UTC
Prognozė galioja nuo 28 metu 00 UTC su 28 metu 24 UTC
Vėjas 11 kt iš Pietryčių
Matomumas: 10 km
Išsisklaidę debesys ne aukštis 1400 ft
Su prošvaistėmis ne aukštis 3000 ft
Apsiniaukę ne aukštis 8000 ft
lietus
Laikinai
nuo 28 metu 00 UTC su 28 metu 04 UTC
Matomumas: 4.8 km
Su prošvaistėmis ne aukštis 1400 ft
Apsiniaukę ne aukštis 2500 ft
lietus

TAF: PTSA 272346Z 2800/2824 14011KT P6SM -RA SCT014 BKN030 OVC080 TEMPO 2800/2804 3SM +SHRA BKN014 OVC025

Orai ataskaitas ir orų prognozės (METAR, TAF).

turimą stotys yra geltonos ir raudonos taškus žemėlapyje.

Perkelti pele per norėdami pamatyti stoties vardą.

Tada spustelėkite, norėdami matyti oro stebėjimo ir prognozės.

Norėdami pakeisti žemėlapį: spustelėkite ant žalios mygtukų su juodo kryžiaus žemyn,; žalią mygtuką su brūkšneliu, jei norite nutolinti; arba žalių rodyklių gretimoms žemėlapius.


METAR-TAF: